Time;durP1;ratioP1;P1;durP2;ratioP2;P2;SDS_P1;SDS_P2;PMS_P1;PMS_P2;Temp;Humidity;BMP_temperature;BMP_pressure;BME280_temperature;BME280_humidity;BME280_pressure;Samples;Min_cycle;Max_cycle;Signal;HPM_P1;HPM_P2
2023/12/19 00:01:30;;;;;;;15.25;5.10;;;19.20;61.70;;;;;;5034612;28;19916;-65
2023/12/19 00:03:55;;;;;;;14.85;4.88;;;19.20;62.10;;;;;;5034659;28;20028;-65
2023/12/19 00:06:21;;;;;;;14.07;5.15;;;19.20;61.50;;;;;;5034248;28;20025;-65
2023/12/19 00:08:47;;;;;;;19.05;4.93;;;19.20;61.30;;;;;;5034546;28;20032;-65
2023/12/19 00:11:13;;;;;;;20.38;6.10;;;19.20;61.90;;;;;;5034378;28;20037;-65
2023/12/19 00:13:38;;;;;;;12.00;4.70;;;19.20;61.50;;;;;;5034181;28;20036;-65
2023/12/19 00:16:04;;;;;;;14.00;4.60;;;19.20;61.40;;;;;;5034013;28;20084;-65
2023/12/19 00:18:30;;;;;;;17.60;5.47;;;19.20;61.80;;;;;;5034490;28;20018;-65
2023/12/19 00:20:56;;;;;;;12.00;4.82;;;19.20;62.40;;;;;;5034321;28;20097;-65
2023/12/19 00:23:22;;;;;;;11.23;4.68;;;19.20;61.80;;;;;;5034315;28;20550;-65
2023/12/19 00:25:48;;;;;;;12.55;4.70;;;19.20;62.10;;;;;;5034006;28;20400;-64
2023/12/19 00:28:14;;;;;;;8.95;4.00;;;19.20;62.40;;;;;;5034382;28;20064;-65
2023/12/19 00:30:40;;;;;;;14.50;4.68;;;19.20;61.90;;;;;;5034069;28;20033;-64
2023/12/19 00:33:06;;;;;;;11.00;4.00;;;19.20;62.10;;;;;;5034103;28;20025;-64
2023/12/19 00:35:33;;;;;;;10.07;4.80;;;19.10;61.60;;;;;;5033749;28;20026;-65
2023/12/19 00:38:02;;;;;;;12.55;4.90;;;19.10;62.50;;;;;;5034109;28;20030;-65
2023/12/19 00:40:27;;;;;;;10.48;4.80;;;19.10;61.90;;;;;;5034084;28;20405;-65
2023/12/19 00:42:53;;;;;;;9.65;4.18;;;19.20;62.40;;;;;;5033943;28;20037;-65
2023/12/19 00:45:19;;;;;;;14.90;4.28;;;19.10;62.20;;;;;;5032930;28;20030;-66
2023/12/19 00:47:45;;;;;;;12.20;4.80;;;19.20;62.00;;;;;;5033829;28;20171;-66
2023/12/19 00:50:15;;;;;;;10.93;4.47;;;19.10;62.70;;;;;;5033848;28;20045;-66
2023/12/19 00:52:43;;;;;;;10.85;4.40;;;19.10;61.90;;;;;;5033858;28;20029;-65
2023/12/19 00:55:09;;;;;;;13.55;4.30;;;19.20;62.20;;;;;;5033749;28;20033;-65
2023/12/19 00:57:35;;;;;;;12.80;4.22;;;19.10;61.30;;;;;;5033388;28;20030;-64
2023/12/19 01:00:02;;;;;;;14.30;4.57;;;19.10;61.90;;;;;;5033690;28;20567;-65
2023/12/19 01:02:29;;;;;;;11.35;4.40;;;19.10;61.60;;;;;;5033755;28;20045;-65
2023/12/19 01:04:57;;;;;;;10.18;4.35;;;19.10;61.90;;;;;;5033582;28;20034;-64
2023/12/19 01:07:23;;;;;;;8.07;4.00;;;19.10;62.30;;;;;;5033449;28;20021;-65
2023/12/19 01:09:49;;;;;;;9.25;4.20;;;19.10;62.40;;;;;;5033464;28;20033;-65
2023/12/19 01:12:15;;;;;;;9.15;4.38;;;19.10;61.80;;;;;;5055088;22;20044;-64
2023/12/19 01:14:42;;;;;;;7.45;4.00;;;19.10;62.50;;;;;;5052908;28;20079;-64
2023/12/19 01:17:07;;;;;;;11.27;4.03;;;19.10;62.20;;;;;;5052712;28;20080;-63
2023/12/19 01:19:33;;;;;;;8.48;4.18;;;19.10;62.20;;;;;;5053241;28;20021;-63
2023/12/19 01:21:59;;;;;;;9.02;3.78;;;19.10;62.70;;;;;;5041266;28;20036;-64
2023/12/19 01:24:25;;;;;;;10.02;4.13;;;19.10;62.80;;;;;;5033124;28;20036;-64
2023/12/19 01:26:51;;;;;;;9.18;3.95;;;19.10;62.80;;;;;;5032881;28;20380;-63
2023/12/19 01:29:18;;;;;;;7.80;4.32;;;19.10;62.40;;;;;;5033060;28;20040;-64
2023/12/19 01:31:44;;;;;;;7.53;3.45;;;19.10;62.10;;;;;;5032877;28;20049;-63
2023/12/19 01:34:11;;;;;;;9.45;4.25;;;19.10;62.20;;;;;;5033063;28;20060;-63
2023/12/19 01:36:39;;;;;;;7.40;3.75;;;19.10;62.60;;;;;;5032639;28;20566;-63
2023/12/19 01:39:05;;;;;;;7.97;3.58;;;19.10;61.90;;;;;;5033036;28;20229;-63
2023/12/19 01:41:31;;;;;;;8.30;3.80;;;19.10;61.60;;;;;;5032791;28;20570;-64
2023/12/19 01:43:58;;;;;;;12.15;4.22;;;19.10;62.40;;;;;;5032897;28;20575;-64
2023/12/19 01:46:24;;;;;;;10.73;4.07;;;19.20;63.10;;;;;;5032443;28;20172;-64
2023/12/19 01:48:50;;;;;;;11.07;3.25;;;19.20;61.60;;;;;;5032849;28;20108;-64
2023/12/19 01:51:17;;;;;;;10.48;4.30;;;19.10;61.20;;;;;;5032608;28;20029;-64
2023/12/19 01:53:44;;;;;;;8.93;3.75;;;19.10;61.40;;;;;;5032726;28;20033;-64
2023/12/19 01:56:12;;;;;;;8.52;3.40;;;19.10;61.30;;;;;;5031456;28;20033;-63
2023/12/19 01:58:38;;;;;;;10.65;3.72;;;19.10;61.20;;;;;;5032451;28;20026;-63
2023/12/19 02:01:06;;;;;;;10.05;3.60;;;19.10;61.90;;;;;;5031295;28;20028;-63
2023/12/19 02:03:32;;;;;;;6.55;3.20;;;19.10;60.70;;;;;;5032513;28;20105;-64
2023/12/19 02:05:59;;;;;;;6.53;3.72;;;19.10;61.80;;;;;;5032151;28;20029;-64
2023/12/19 02:08:29;;;;;;;8.20;3.53;;;19.10;61.10;;;;;;5032343;28;20087;-63
2023/12/19 02:10:55;;;;;;;6.28;3.40;;;19.10;61.00;;;;;;5032166;28;20041;-64
2023/12/19 02:13:21;;;;;;;7.63;3.30;;;19.10;61.10;;;;;;5032139;28;20464;-64
2023/12/19 02:15:48;;;;;;;6.78;3.50;;;19.10;61.00;;;;;;5031940;28;20021;-64
2023/12/19 02:18:19;;;;;;;7.65;3.42;;;19.10;60.40;;;;;;5032406;28;20116;-64
2023/12/19 02:24:51;;;;;;;7.93;3.50;;;19.10;60.50;;;;;;5031784;28;20064;-64
2023/12/19 02:27:24;;;;;;;5.68;3.03;;;19.10;60.50;;;;;;5031708;28;20040;-63
2023/12/19 02:29:50;;;;;;;11.73;3.45;;;19.10;60.20;;;;;;5031878;28;20029;-64
2023/12/19 02:32:16;;;;;;;5.50;3.40;;;19.10;60.70;;;;;;5031870;28;20053;-64
2023/12/19 02:34:42;;;;;;;6.40;3.45;;;19.10;60.50;;;;;;5031866;28;20041;-64
2023/12/19 02:37:08;;;;;;;10.38;3.05;;;19.10;60.30;;;;;;5031472;28;20502;-64
2023/12/19 02:39:34;;;;;;;4.95;3.08;;;19.10;60.50;;;;;;5031864;28;20033;-63
2023/12/19 02:42:00;;;;;;;4.88;2.92;;;19.10;60.20;;;;;;5030577;28;20036;-64
2023/12/19 02:44:25;;;;;;;6.43;2.72;;;19.10;60.40;;;;;;5031791;28;20026;-63
2023/12/19 02:46:51;;;;;;;7.28;3.28;;;19.10;60.80;;;;;;5031692;28;20526;-64
2023/12/19 02:49:17;;;;;;;5.82;3.13;;;19.00;60.50;;;;;;5031694;28;20427;-63
2023/12/19 02:51:43;;;;;;;8.55;3.40;;;19.10;61.00;;;;;;5030557;28;20033;-64
2023/12/19 02:54:09;;;;;;;7.78;3.75;;;19.00;60.40;;;;;;5031645;28;20456;-63
2023/12/19 02:56:35;;;;;;;7.47;3.10;;;19.00;60.40;;;;;;5031192;28;20057;-63
2023/12/19 02:59:01;;;;;;;6.35;3.13;;;19.00;60.40;;;;;;5031493;28;20030;-63
2023/12/19 03:01:27;;;;;;;5.75;3.08;;;19.00;60.50;;;;;;5031465;28;20113;-63
2023/12/19 03:03:53;;;;;;;6.45;3.35;;;19.10;60.40;;;;;;5031687;28;20109;-63
2023/12/19 03:06:18;;;;;;;6.50;3.20;;;19.10;60.50;;;;;;5031244;28;20034;-64
2023/12/19 03:08:48;;;;;;;6.07;3.05;;;19.10;60.20;;;;;;5031161;28;20059;-64
2023/12/19 03:11:14;;;;;;;6.38;3.03;;;19.10;60.50;;;;;;5031277;28;20396;-64
2023/12/19 03:13:40;;;;;;;8.43;3.60;;;19.00;60.40;;;;;;5031383;28;20516;-63
2023/12/19 03:16:06;;;;;;;4.60;2.80;;;19.10;60.50;;;;;;5031027;28;20026;-63
2023/12/19 03:18:32;;;;;;;5.18;2.60;;;19.10;60.80;;;;;;5031372;28;20056;-63
2023/12/19 03:20:58;;;;;;;4.80;2.83;;;19.00;60.10;;;;;;5031375;28;20453;-63
2023/12/19 03:23:24;;;;;;;4.43;3.00;;;19.10;60.50;;;;;;5031360;28;20028;-63
2023/12/19 03:25:50;;;;;;;4.18;2.80;;;19.00;60.60;;;;;;5013666;28;20104;-64
2023/12/19 03:28:16;;;;;;;7.65;3.60;;;19.00;60.40;;;;;;5031444;28;20132;-63
2023/12/19 03:30:42;;;;;;;7.25;2.90;;;19.00;60.00;;;;;;5031274;28;20551;-63
2023/12/19 03:33:07;;;;;;;5.20;2.90;;;19.00;60.90;;;;;;5031252;28;20106;-63
2023/12/19 03:35:33;;;;;;;5.13;2.70;;;19.00;61.00;;;;;;5030972;28;20488;-63
2023/12/19 03:37:59;;;;;;;4.75;3.40;;;19.00;60.90;;;;;;5031245;28;20033;-64
2023/12/19 03:40:25;;;;;;;5.75;2.80;;;19.00;60.30;;;;;;5031157;28;20016;-63
2023/12/19 03:42:51;;;;;;;7.25;2.72;;;19.00;60.60;;;;;;5031065;28;20104;-63
2023/12/19 03:45:16;;;;;;;5.45;3.10;;;19.00;60.30;;;;;;5031014;28;20026;-63
2023/12/19 03:47:42;;;;;;;5.00;2.88;;;19.00;60.70;;;;;;5029956;28;20041;-63
2023/12/19 03:50:08;;;;;;;5.18;2.90;;;19.00;60.50;;;;;;5029805;28;20048;-63
2023/12/19 03:52:35;;;;;;;4.22;2.85;;;19.00;60.70;;;;;;5030995;28;20405;-63
2023/12/19 03:55:01;;;;;;;6.05;3.10;;;19.00;60.20;;;;;;5030961;28;20036;-64
2023/12/19 03:57:27;;;;;;;5.25;3.08;;;19.00;60.30;;;;;;5030487;28;20509;-63
2023/12/19 03:59:53;;;;;;;6.65;3.10;;;19.00;60.10;;;;;;5029762;28;20544;-63
2023/12/19 04:02:19;;;;;;;5.65;3.17;;;19.00;60.10;;;;;;5030889;28;20034;-64
2023/12/19 04:04:45;;;;;;;5.25;3.20;;;19.00;59.80;;;;;;5031163;28;20036;-64
2023/12/19 04:07:11;;;;;;;6.20;3.50;;;19.00;59.80;;;;;;5029676;28;20045;-63
2023/12/19 04:09:37;;;;;;;7.43;3.20;;;19.10;59.80;;;;;;5030903;28;20048;-63
2023/12/19 04:12:03;;;;;;;6.18;3.10;;;19.00;59.60;;;;;;5030459;28;20034;-63
2023/12/19 04:14:30;;;;;;;5.97;2.88;;;19.10;59.70;;;;;;5030857;28;20033;-63
2023/12/19 04:16:56;;;;;;;4.18;2.80;;;19.00;60.00;;;;;;5030400;28;20026;-63
2023/12/19 04:19:22;;;;;;;3.92;2.72;;;19.00;59.70;;;;;;5030980;28;20112;-63
2023/12/19 04:21:49;;;;;;;6.78;2.78;;;19.10;59.70;;;;;;5034294;28;20029;-63
2023/12/19 04:24:15;;;;;;;5.97;3.30;;;19.10;59.80;;;;;;5034457;28;20489;-63
2023/12/19 04:26:46;;;;;;;4.20;3.08;;;19.10;59.70;;;;;;5034045;28;20489;-63
2023/12/19 04:29:12;;;;;;;4.78;3.20;;;19.00;59.70;;;;;;5034169;28;20412;-63
2023/12/19 04:31:39;;;;;;;5.22;3.05;;;19.10;60.10;;;;;;5034154;28;20064;-63
2023/12/19 04:34:04;;;;;;;4.20;2.90;;;19.00;60.30;;;;;;5034219;28;20076;-64
2023/12/19 04:36:31;;;;;;;6.10;3.20;;;19.00;60.50;;;;;;5032595;28;20041;-63
2023/12/19 04:38:57;;;;;;;7.03;2.88;;;19.00;60.30;;;;;;5034061;28;20026;-63
2023/12/19 04:41:23;;;;;;;5.20;3.15;;;19.00;60.40;;;;;;5034007;28;20029;-64
2023/12/19 04:43:49;;;;;;;6.45;2.90;;;19.10;60.60;;;;;;5033842;28;20409;-63
2023/12/19 04:46:15;;;;;;;5.03;2.75;;;19.10;60.70;;;;;;5033711;28;20033;-64
2023/12/19 04:48:42;;;;;;;4.35;2.80;;;19.10;60.60;;;;;;5033859;28;20033;-63
2023/12/19 04:51:19;;;;;;;4.72;2.92;;;19.10;60.50;;;;;;5033776;28;20112;-64
2023/12/19 04:53:46;;;;;;;4.30;2.97;;;19.10;60.70;;;;;;5033694;28;20151;-64
2023/12/19 04:56:13;;;;;;;4.88;2.72;;;19.00;60.80;;;;;;5032020;28;20029;-63
2023/12/19 04:58:39;;;;;;;4.55;3.30;;;19.00;61.40;;;;;;5033546;28;20041;-63
2023/12/19 05:01:05;;;;;;;5.88;3.13;;;19.10;60.70;;;;;;5033488;28;20022;-64
2023/12/19 05:03:33;;;;;;;5.45;3.50;;;19.00;61.00;;;;;;5033511;28;20039;-63
2023/12/19 05:06:00;;;;;;;4.80;2.83;;;19.00;60.80;;;;;;5033227;28;20056;-64
2023/12/19 05:08:25;;;;;;;4.88;3.10;;;19.00;60.50;;;;;;5032407;28;20445;-63
2023/12/19 05:10:51;;;;;;;5.25;2.83;;;19.10;61.20;;;;;;5032186;28;20099;-63
2023/12/19 05:13:17;;;;;;;4.22;2.90;;;19.10;61.00;;;;;;5033355;28;20061;-64
2023/12/19 05:15:43;;;;;;;5.20;2.97;;;19.10;60.90;;;;;;5032841;28;20029;-63
2023/12/19 05:18:09;;;;;;;5.47;3.17;;;19.00;60.90;;;;;;5033281;28;20507;-63
2023/12/19 05:20:34;;;;;;;6.50;3.00;;;19.10;61.20;;;;;;5033204;28;20405;-63
2023/12/19 05:23:01;;;;;;;6.57;3.47;;;19.10;61.30;;;;;;5033092;28;20026;-64
2023/12/19 05:25:27;;;;;;;5.35;3.10;;;19.10;61.00;;;;;;5032798;28;20085;-63
2023/12/19 05:27:53;;;;;;;6.10;3.55;;;19.10;61.60;;;;;;5033145;28;20033;-63
2023/12/19 05:30:18;;;;;;;5.50;3.30;;;19.10;61.30;;;;;;5031887;28;20439;-63
2023/12/19 05:32:44;;;;;;;4.30;3.00;;;19.10;61.00;;;;;;5033033;28;20029;-63
2023/12/19 05:35:10;;;;;;;5.40;3.10;;;19.10;61.40;;;;;;5033019;28;20072;-63
2023/12/19 05:37:36;;;;;;;5.40;3.30;;;19.10;61.60;;;;;;5032583;28;20096;-63
2023/12/19 05:40:02;;;;;;;6.57;3.17;;;19.10;61.50;;;;;;5032742;28;20088;-63
2023/12/19 05:42:27;;;;;;;4.88;3.40;;;19.10;61.60;;;;;;5032776;28;20028;-63
2023/12/19 05:44:53;;;;;;;5.57;3.30;;;19.10;61.50;;;;;;5032794;28;20032;-63
2023/12/19 05:47:19;;;;;;;6.53;3.67;;;19.10;61.60;;;;;;5032433;28;20108;-63
2023/12/19 05:49:45;;;;;;;4.35;2.92;;;19.10;61.30;;;;;;5032775;28;20029;-64
2023/12/19 05:52:10;;;;;;;6.22;3.47;;;19.10;62.30;;;;;;5032694;28;20517;-63
2023/12/19 05:54:36;;;;;;;6.60;3.17;;;19.10;61.20;;;;;;5032522;28;20034;-64
2023/12/19 05:57:02;;;;;;;6.22;3.47;;;19.10;61.50;;;;;;5032170;28;20026;-63
2023/12/19 05:59:28;;;;;;;6.72;3.45;;;19.10;61.60;;;;;;5032503;28;20021;-64
2023/12/19 06:01:54;;;;;;;6.82;3.50;;;19.10;61.60;;;;;;5032433;28;20018;-63
2023/12/19 06:04:19;;;;;;;5.63;3.35;;;19.10;61.70;;;;;;5031212;28;20105;-63
2023/12/19 06:06:45;;;;;;;6.05;3.53;;;19.10;61.10;;;;;;5032058;28;20511;-63
2023/12/19 06:09:11;;;;;;;6.60;3.30;;;19.10;61.40;;;;;;5032302;28;20060;-63
2023/12/19 06:11:37;;;;;;;7.50;3.60;;;19.10;61.40;;;;;;5032245;28;20124;-63
2023/12/19 06:14:05;;;;;;;7.68;3.53;;;19.10;61.30;;;;;;5032217;28;20045;-63
2023/12/19 06:16:31;;;;;;;6.88;3.78;;;19.20;60.90;;;;;;5031850;28;20025;-63
2023/12/19 06:18:57;;;;;;;7.07;3.47;;;19.10;60.60;;;;;;5032227;28;20108;-63
2023/12/19 06:21:23;;;;;;;5.85;3.70;;;19.20;60.80;;;;;;5032087;28;20100;-63
2023/12/19 06:23:49;;;;;;;5.97;3.45;;;19.20;60.50;;;;;;5032050;28;20033;-63
2023/12/19 06:26:15;;;;;;;7.38;4.18;;;19.20;60.60;;;;;;5031790;28;20493;-64
2023/12/19 06:28:41;;;;;;;5.53;3.70;;;19.10;60.20;;;;;;5031994;28;20053;-62
2023/12/19 06:31:06;;;;;;;7.40;3.72;;;19.20;60.00;;;;;;5031965;28;20026;-63
2023/12/19 06:33:32;;;;;;;6.57;3.92;;;19.20;60.20;;;;;;5032145;28;20091;-64
2023/12/19 06:35:58;;;;;;;6.28;3.50;;;19.20;60.50;;;;;;5031632;28;20033;-63
2023/12/19 06:38:24;;;;;;;5.63;3.60;;;19.10;60.70;;;;;;5031719;28;20449;-63
2023/12/19 06:40:50;;;;;;;6.35;3.38;;;19.20;61.50;;;;;;5030893;28;20049;-63
2023/12/19 06:43:17;;;;;;;6.85;3.75;;;19.20;60.90;;;;;;5031444;28;20072;-64
2023/12/19 06:45:42;;;;;;;6.03;3.72;;;19.10;60.70;;;;;;5031469;28;20026;-64
2023/12/19 06:48:08;;;;;;;7.57;3.60;;;19.10;60.70;;;;;;5031664;28;20041;-64
2023/12/19 06:50:34;;;;;;;6.35;3.67;;;19.10;60.30;;;;;;5031661;28;20029;-63
2023/12/19 06:53:02;;;;;;;6.68;3.58;;;19.10;60.40;;;;;;5031412;28;20382;-63
2023/12/19 06:55:30;;;;;;;7.72;3.70;;;19.10;60.40;;;;;;5031296;28;20036;-63
2023/12/19 06:57:56;;;;;;;7.88;3.90;;;19.20;60.20;;;;;;5031439;28;20120;-63
2023/12/19 07:00:22;;;;;;;7.57;4.05;;;19.10;59.50;;;;;;5030348;28;20108;-64
2023/12/19 07:02:48;;;;;;;5.50;3.50;;;19.20;60.00;;;;;;5031378;28;20033;-64
2023/12/19 07:05:13;;;;;;;6.25;3.60;;;19.10;60.00;;;;;;5031372;28;20388;-63
2023/12/19 07:07:39;;;;;;;6.32;3.45;;;19.20;60.30;;;;;;5030996;28;20026;-63
2023/12/19 07:10:05;;;;;;;13.43;4.88;;;19.20;60.40;;;;;;5031645;28;20477;-64
2023/12/19 07:12:31;;;;;;;7.28;4.45;;;19.20;57.20;;;;;;5075380;23;20083;-64
2023/12/19 07:14:58;;;;;;;8.15;4.28;;;19.00;53.20;;;;;;5071016;28;20057;-64
2023/12/19 07:17:23;;;;;;;9.13;5.10;;;18.80;51.40;;;;;;5070590;28;20102;-63
2023/12/19 07:19:49;;;;;;;15.82;4.88;;;18.60;51.50;;;;;;5070978;28;20499;-64
2023/12/19 07:22:15;;;;;;;10.57;4.88;;;18.70;51.50;;;;;;5071226;28;20029;-64
2023/12/19 07:24:41;;;;;;;13.45;4.22;;;18.70;52.70;;;;;;5071492;28;20067;-63
2023/12/19 07:27:08;;;;;;;9.48;4.72;;;18.90;53.80;;;;;;5070957;28;20033;-64
2023/12/19 07:29:37;;;;;;;8.15;3.70;;;19.00;55.00;;;;;;5071267;28;20029;-64
2023/12/19 07:32:03;;;;;;;12.43;4.82;;;19.00;55.10;;;;;;5067954;28;20403;-65
2023/12/19 07:34:29;;;;;;;13.73;4.55;;;19.10;56.90;;;;;;5052911;28;20558;-64
2023/12/19 07:36:55;;;;;;;10.07;4.40;;;19.20;58.20;;;;;;5055564;28;20118;-64
2023/12/19 07:39:20;;;;;;;14.70;5.15;;;19.20;58.90;;;;;;5054455;28;20496;-64
2023/12/19 07:41:46;;;;;;;15.65;4.80;;;19.30;59.60;;;;;;5063188;28;20054;-64
2023/12/19 07:44:14;;;;;;;17.23;5.00;;;19.30;58.50;;;;;;5065700;28;20416;-55
2023/12/19 07:46:41;;;;;;;13.38;4.95;;;19.30;59.40;;;;;;5059951;28;20111;-65
2023/12/19 07:49:08;;;;;;;11.95;4.32;;;19.30;58.30;;;;;;5065625;28;20498;-63
2023/12/19 07:51:34;;;;;;;11.60;4.53;;;19.30;58.10;;;;;;5055006;28;20066;-63
2023/12/19 07:53:59;;;;;;;9.60;4.38;;;19.30;58.70;;;;;;5060583;28;21542;-62
2023/12/19 07:56:25;;;;;;;11.05;4.15;;;19.30;58.60;;;;;;5060583;28;20559;-62
2023/12/19 07:58:52;;;;;;;8.05;4.30;;;19.30;59.20;;;;;;5060375;28;20036;-65
2023/12/19 08:01:17;;;;;;;9.40;4.32;;;19.30;59.40;;;;;;5058855;28;20400;-62
2023/12/19 08:03:44;;;;;;;11.10;3.83;;;19.30;59.20;;;;;;5058804;28;20036;-64
2023/12/19 08:06:10;;;;;;;6.78;3.95;;;19.30;59.30;;;;;;5058302;28;20044;-63
2023/12/19 08:08:37;;;;;;;13.13;4.10;;;19.30;58.70;;;;;;5063796;28;20511;-62
2023/12/19 08:11:03;;;;;;;9.48;4.10;;;19.30;58.50;;;;;;5054308;28;20564;-62
2023/12/19 08:13:29;;;;;;;11.80;4.47;;;19.30;58.40;;;;;;5062990;28;20038;-64
2023/12/19 08:15:55;;;;;;;12.57;4.00;;;19.30;58.30;;;;;;5058504;28;20147;-62
2023/12/19 08:18:21;;;;;;;11.13;3.42;;;19.30;58.80;;;;;;5058648;28;20049;-62
2023/12/19 08:20:47;;;;;;;8.30;3.72;;;19.30;59.30;;;;;;5071639;28;20130;-62
2023/12/19 08:23:13;;;;;;;9.52;3.55;;;19.30;58.20;;;;;;5059583;28;20074;-64
2023/12/19 08:25:41;;;;;;;9.65;3.78;;;19.30;58.30;;;;;;5055540;28;20070;-62
2023/12/19 08:28:08;;;;;;;7.60;3.72;;;19.30;58.40;;;;;;5063256;28;20100;-62
2023/12/19 08:30:34;;;;;;;9.77;3.92;;;19.30;59.00;;;;;;5058268;28;20488;-62
2023/12/19 08:33:00;;;;;;;12.10;4.50;;;19.30;58.40;;;;;;5057581;28;20035;-61
2023/12/19 08:35:26;;;;;;;16.63;4.70;;;19.30;59.30;;;;;;5061619;28;20495;-65
2023/12/19 08:37:52;;;;;;;15.65;4.40;;;19.30;59.20;;;;;;5044105;28;20036;-64
2023/12/19 08:40:19;;;;;;;12.32;4.22;;;19.30;61.10;;;;;;5064429;28;20103;-64
2023/12/19 08:42:45;;;;;;;12.32;4.60;;;19.30;60.50;;;;;;5062172;28;20020;-63
2023/12/19 08:45:15;;;;;;;14.82;4.45;;;19.30;61.10;;;;;;5064185;28;20027;-65
2023/12/19 08:47:42;;;;;;;13.23;4.97;;;19.30;60.50;;;;;;5061176;28;20039;-63
2023/12/19 08:50:10;;;;;;;12.43;4.53;;;19.40;59.90;;;;;;5061911;28;20028;-64
2023/12/19 08:52:38;;;;;;;11.25;4.82;;;19.30;59.90;;;;;;5063591;28;20044;-64
2023/12/19 08:55:10;;;;;;;15.20;4.23;;;19.40;61.00;;;;;;5066198;28;20041;-63
2023/12/19 08:57:40;;;;;;;10.45;4.10;;;19.30;60.50;;;;;;5062631;28;20326;-63
2023/12/19 09:00:07;;;;;;;12.25;4.20;;;19.30;61.30;;;;;;5064943;28;20025;-63
2023/12/19 09:02:32;;;;;;;8.27;4.00;;;19.40;61.10;;;;;;5057943;28;20447;-65
2023/12/19 09:04:58;;;;;;;11.65;5.32;;;19.40;60.90;;;;;;5052586;28;20104;-64
2023/12/19 09:07:24;;;;;;;12.07;5.45;;;19.40;61.00;;;;;;5045455;28;20541;-64
2023/12/19 09:09:54;;;;;;;13.20;5.40;;;19.40;61.20;;;;;;5061330;28;20785;-64
2023/12/19 09:12:20;;;;;;;10.35;4.65;;;19.40;61.40;;;;;;5051517;28;20404;-64
2023/12/19 09:14:46;;;;;;;9.25;4.57;;;19.40;60.00;;;;;;5060845;28;20028;-65
2023/12/19 09:17:11;;;;;;;11.77;5.05;;;19.40;60.70;;;;;;5058654;28;20442;-65
2023/12/19 09:19:37;;;;;;;11.60;4.78;;;19.40;61.20;;;;;;5053311;28;20024;-64
2023/12/19 09:22:03;;;;;;;13.35;4.93;;;19.40;61.20;;;;;;5056534;28;20048;-64
2023/12/19 09:24:30;;;;;;;13.85;5.10;;;19.50;61.10;;;;;;5054580;28;20067;-62
2023/12/19 09:26:57;;;;;;;11.48;4.50;;;19.50;61.20;;;;;;5050903;28;20450;-61
2023/12/19 09:29:25;;;;;;;9.32;5.05;;;19.50;61.30;;;;;;5052681;28;20029;-61
2023/12/19 09:31:52;;;;;;;13.93;5.35;;;19.50;61.10;;;;;;5051775;28;20087;-62
2023/12/19 09:34:18;;;;;;;14.60;4.80;;;19.50;61.00;;;;;;5046483;28;20031;-62
2023/12/19 09:36:44;;;;;;;12.98;5.00;;;19.60;61.00;;;;;;5054077;28;20033;-62
2023/12/19 09:39:14;;;;;;;9.13;4.60;;;19.60;61.20;;;;;;5058341;28;21039;-63
2023/12/19 09:41:41;;;;;;;;;;;19.70;61.70;;;;;;5069500;28;20021;-62
2023/12/19 09:44:07;;;;;;;15.40;4.22;;;19.80;60.90;;;;;;5051648;28;20367;-64
2023/12/19 09:46:33;;;;;;;11.90;4.72;;;19.80;60.80;;;;;;5050314;28;20033;-63
2023/12/19 09:49:00;;;;;;;12.50;4.75;;;19.80;61.20;;;;;;5059856;28;20074;-63
2023/12/19 09:51:30;;;;;;;8.50;4.35;;;19.80;60.90;;;;;;5057237;28;20029;-63
2023/12/19 09:53:57;;;;;;;9.95;4.38;;;19.90;60.80;;;;;;5057682;28;20097;-62
2023/12/19 09:56:24;;;;;;;9.85;4.40;;;19.80;60.70;;;;;;5035250;28;20041;-63
2023/12/19 09:58:51;;;;;;;9.85;4.53;;;19.80;60.70;;;;;;5058362;28;20463;-63
2023/12/19 10:01:17;;;;;;;8.80;4.22;;;19.90;60.80;;;;;;5064636;28;20024;-63
2023/12/19 10:03:49;;;;;;;10.68;4.35;;;19.90;60.70;;;;;;5058155;28;20523;-64
2023/12/19 10:06:18;;;;;;;9.68;4.38;;;19.90;60.70;;;;;;5061818;28;20032;-64
2023/12/19 10:08:44;;;;;;;11.30;4.30;;;19.90;60.80;;;;;;5037411;28;20043;-62
2023/12/19 10:11:27;;;;;;;10.43;4.50;;;19.90;60.80;;;;;;5058155;28;20459;-61
2023/12/19 10:14:10;;;;;;;7.90;4.30;;;19.90;60.80;;;;;;5041808;28;20102;-62
2023/12/19 10:16:42;;;;;;;9.95;4.55;;;19.90;60.80;;;;;;5061650;28;20436;-62
2023/12/19 10:19:13;;;;;;;9.30;3.90;;;19.90;60.90;;;;;;5061389;28;20029;-62
2023/12/19 10:21:40;;;;;;;12.95;4.43;;;19.90;60.80;;;;;;5061758;28;20032;-62
2023/12/19 10:24:11;;;;;;;10.38;4.90;;;19.90;60.80;;;;;;5058163;28;20035;-62
2023/12/19 10:26:38;;;;;;;8.48;4.70;;;20.00;60.80;;;;;;5030504;28;20519;-62
2023/12/19 10:29:05;;;;;;;8.18;4.03;;;20.00;60.80;;;;;;5058326;28;20021;-61
2023/12/19 10:31:31;;;;;;;11.07;4.80;;;20.00;60.80;;;;;;5058010;28;20502;-61
2023/12/19 10:33:57;;;;;;;8.32;4.68;;;20.00;60.70;;;;;;5059821;28;20108;-64
2023/12/19 10:36:30;;;;;;;10.85;4.60;;;20.00;60.70;;;;;;5051595;28;20051;-62
2023/12/19 10:38:58;;;;;;;14.63;4.80;;;20.00;60.70;;;;;;5059444;28;20511;-61
2023/12/19 10:41:29;;;;;;;7.45;3.92;;;20.00;60.70;;;;;;5057821;28;20068;-61
2023/12/19 10:43:57;;;;;;;8.70;4.03;;;20.00;60.70;;;;;;5061910;28;20491;-61
2023/12/19 10:46:27;;;;;;;8.82;4.18;;;20.00;60.70;;;;;;5054770;28;20450;-63
2023/12/19 10:48:57;;;;;;;8.38;4.20;;;20.00;60.70;;;;;;5058159;28;20488;-61
2023/12/19 10:51:50;;;;;;;10.48;4.30;;;20.00;60.80;;;;;;5057644;28;20028;-61
2023/12/19 10:54:16;;;;;;;7.93;4.35;;;20.00;60.90;;;;;;5052526;28;20036;-61
2023/12/19 10:57:00;;;;;;;6.68;3.97;;;20.00;60.80;;;;;;5058712;28;20028;-63
2023/12/19 10:59:32;;;;;;;11.27;4.13;;;20.00;61.70;;;;;;5055270;28;20035;-62
2023/12/19 11:02:29;;;;;;;10.98;3.80;;;20.00;61.10;;;;;;5058954;28;20029;-62
2023/12/19 11:05:04;;;;;;;10.18;4.63;;;20.00;61.00;;;;;;5059030;28;20104;-62
2023/12/19 11:07:32;;;;;;;9.77;3.90;;;20.00;61.00;;;;;;5060901;28;20070;-62
2023/12/19 11:10:06;;;;;;;8.05;3.65;;;20.00;61.10;;;;;;5058773;28;20063;-61
2023/12/19 11:12:33;;;;;;;9.48;4.40;;;20.00;61.00;;;;;;5056163;28;20064;-61
2023/12/19 11:14:59;;;;;;;9.10;4.30;;;20.00;61.10;;;;;;5059707;28;20075;-61
2023/12/19 11:17:33;;;;;;;8.90;4.35;;;20.00;61.10;;;;;;5060649;28;20450;-61
2023/12/19 11:20:09;;;;;;;10.13;4.30;;;20.00;61.10;;;;;;5058725;28;20028;-62
2023/12/19 11:23:16;;;;;;;8.02;4.43;;;20.00;62.50;;;;;;5056785;28;20017;-61
2023/12/19 11:25:54;;;;;;;9.52;4.63;;;20.00;62.10;;;;;;5056554;28;20024;-63
2023/12/19 11:28:19;;;;;;;9.48;4.40;;;20.00;61.20;;;;;;5053071;28;20021;-62
2023/12/19 11:30:45;;;;;;;7.45;4.03;;;20.00;61.30;;;;;;5064445;28;20521;-63
2023/12/19 11:33:13;;;;;;;8.75;4.38;;;20.00;62.30;;;;;;5060903;28;20021;-62
2023/12/19 11:35:40;;;;;;;6.95;4.00;;;20.00;61.50;;;;;;5060705;28;20071;-62
2023/12/19 11:38:14;;;;;;;10.38;4.38;;;20.00;61.30;;;;;;5063186;28;20409;-61
2023/12/19 11:40:47;;;;;;;9.15;4.05;;;20.00;61.40;;;;;;5061844;28;20025;-64
2023/12/19 11:43:29;;;;;;;7.57;4.03;;;20.00;61.60;;;;;;5058255;28;20029;-64
2023/12/19 11:45:56;;;;;;;6.63;3.80;;;20.00;61.40;;;;;;5061158;28;20034;-65
2023/12/19 11:48:44;;;;;;;9.85;4.88;;;20.00;61.40;;;;;;5063702;28;20025;-63
2023/12/19 11:51:11;;;;;;;11.15;4.10;;;20.00;61.50;;;;;;5067648;28;20032;-64
2023/12/19 11:53:38;;;;;;;7.93;4.47;;;20.00;61.60;;;;;;5069937;28;20031;-63
2023/12/19 11:56:05;;;;;;;9.73;3.88;;;20.00;61.60;;;;;;5067679;28;20082;-63
2023/12/19 11:58:32;;;;;;;7.20;3.90;;;20.00;61.40;;;;;;5060566;28;20502;-64
2023/12/19 12:01:02;;;;;;;8.02;4.10;;;20.00;61.40;;;;;;5057190;28;20107;-62
2023/12/19 12:03:28;;;;;;;13.32;3.85;;;20.00;61.50;;;;;;5067226;28;20024;-64
2023/12/19 12:05:54;;;;;;;7.35;3.75;;;20.00;61.30;;;;;;5066467;28;20187;-64
2023/12/19 12:08:21;;;;;;;6.88;3.88;;;20.00;61.40;;;;;;5070634;28;20066;-63
2023/12/19 12:11:01;;;;;;;6.32;3.42;;;20.00;61.40;;;;;;5053521;28;20037;-63
2023/12/19 12:13:29;;;;;;;7.57;4.07;;;20.00;61.40;;;;;;5064554;28;20381;-63
2023/12/19 12:15:58;;;;;;;8.20;4.03;;;20.00;61.60;;;;;;5060585;28;20033;-64
2023/12/19 12:18:26;;;;;;;7.95;3.90;;;20.00;61.30;;;;;;5063453;28;20074;-62
2023/12/19 12:21:04;;;;;;;8.57;4.20;;;20.00;61.40;;;;;;5069800;28;20102;-62
2023/12/19 12:23:30;;;;;;;7.00;4.13;;;20.00;61.40;;;;;;5067674;28;20384;-62
2023/12/19 12:25:56;;;;;;;14.20;3.95;;;20.00;61.40;;;;;;5063089;28;20085;-63
2023/12/19 12:28:28;;;;;;;7.43;3.80;;;20.00;61.30;;;;;;5065032;28;20281;-63
2023/12/19 12:30:57;;;;;;;7.43;3.97;;;20.00;61.40;;;;;;5066999;28;20099;-64
2023/12/19 12:33:27;;;;;;;7.15;4.00;;;20.00;61.30;;;;;;5057982;28;20516;-66
2023/12/19 12:35:57;;;;;;;8.00;3.83;;;20.00;61.30;;;;;;5061344;28;20495;-62
2023/12/19 12:38:24;;;;;;;7.65;3.95;;;20.00;61.30;;;;;;5064850;28;20025;-63
2023/12/19 12:41:00;;;;;;;10.50;3.75;;;20.00;61.30;;;;;;5064673;28;20024;-63
2023/12/19 12:43:39;;;;;;;6.43;3.35;;;20.00;61.30;;;;;;5064043;28;20025;-62
2023/12/19 12:46:12;;;;;;;9.20;3.73;;;20.00;61.40;;;;;;5064987;28;20067;-63
2023/12/19 12:49:00;;;;;;;5.85;3.58;;;20.10;61.50;;;;;;5068203;28;20288;-62